Terminal Aerodrome Forecast
Issued by NWS Quad Cities IA IL

Home | Current Version | Previous Version | Text Only | Print | Product List | Glossary On
Versions: 1 2 3 4 5 6 7 8 9 10 11 12 13 14 15 16 17 18 19 20 21 22 23 24 25 26 27
000
FTUS43 KDVN 162338
TAFDBQ
TAF
KDBQ 162338Z 1700/1724 14006KT P6SM VCSH FEW010 SCT023 BKN050
      TEMPO 1700/1702 3SM SHRA BKN015 OVC025
     FM170500 22008KT P6SM SCT020
     FM170900 26014G22KT P6SM OVC009
     FM172300 28012G20KT P6SM SCT030=

USA.gov is the U.S. government's official web portal to all federal, state and local government web resources and services.